Time;durP1;ratioP1;P1;durP2;ratioP2;P2;SDS_P1;SDS_P2;PMS_P1;PMS_P2;Temp;Humidity;BMP_temperature;BMP_pressure;BME280_temperature;BME280_humidity;BME280_pressure;Samples;Min_cycle;Max_cycle;Signal;HPM_P1;HPM_P2
2021/06/07 00:09:59;;;;;;;0.40;0.27;;;18.20;99.90;;;;;;20658784;28;20669;-69
2021/06/07 00:20:06;;;;;;;0.20;0.10;;;17.90;99.90;;;;;;20659370;28;20570;-68
2021/06/07 00:30:11;;;;;;;0.30;0.30;;;17.80;99.90;;;;;;20658294;28;20616;-68
2021/06/07 00:40:19;;;;;;;0.90;0.50;;;17.80;99.90;;;;;;20658434;28;20223;-70
2021/06/07 00:50:40;;;;;;;1.00;0.90;;;18.10;99.90;;;;;;20656035;28;20203;-67
2021/06/07 01:00:53;;;;;;;0.33;0.30;;;18.40;99.90;;;;;;20656469;28;20235;-68
2021/06/07 01:10:57;;;;;;;1.17;1.07;;;18.40;99.90;;;;;;20653030;28;20261;-68
2021/06/07 01:21:04;;;;;;;0.23;0.13;;;18.40;99.90;;;;;;20653223;28;20261;-67
2021/06/07 01:31:09;;;;;;;0.40;0.40;;;18.40;99.90;;;;;;20659787;28;20191;-66
2021/06/07 01:41:15;;;;;;;0.23;0.23;;;18.50;99.90;;;;;;20729874;28;20222;-67
2021/06/07 01:51:20;;;;;;;7.00;1.27;;;18.50;99.90;;;;;;20734243;28;20273;-66
2021/06/07 02:01:24;;;;;;;0.57;0.40;;;18.20;99.90;;;;;;20733567;28;20325;-67
2021/06/07 02:11:30;;;;;;;0.40;0.40;;;18.20;99.90;;;;;;20732378;28;20198;-66
2021/06/07 02:21:35;;;;;;;0.20;0.10;;;18.00;99.90;;;;;;20710284;28;20591;-68
2021/06/07 02:31:41;;;;;;;2.53;1.03;;;18.10;99.90;;;;;;20651237;28;20195;-68
2021/06/07 02:41:44;;;;;;;0.30;0.20;;;18.00;99.90;;;;;;20650193;28;20266;-68
2021/06/07 02:51:49;;;;;;;0.20;0.20;;;17.60;99.90;;;;;;20651186;28;20548;-67
2021/06/07 03:01:52;;;;;;;0.20;0.20;;;17.60;99.90;;;;;;20648765;28;20231;-67
2021/06/07 03:11:57;;;;;;;0.77;0.40;;;17.30;99.90;;;;;;20663787;28;20638;-65
2021/06/07 03:22:00;;;;;;;0.20;0.20;;;17.40;99.90;;;;;;20663350;28;20223;-67
2021/06/07 03:32:05;;;;;;;0.20;0.13;;;17.90;99.90;;;;;;20662877;28;20256;-65
2021/06/07 03:42:09;;;;;;;0.20;0.10;;;17.90;99.90;;;;;;20662107;28;20262;-67
2021/06/07 03:52:13;;;;;;;0.23;0.17;;;17.90;99.90;;;;;;20660625;28;20685;-66
2021/06/07 04:02:20;;;;;;;0.40;0.33;;;17.50;99.90;;;;;;20653023;28;20263;-67
2021/06/07 04:12:25;;;;;;;0.30;0.30;;;17.40;99.90;;;;;;20651341;28;20195;-67
2021/06/07 04:22:28;;;;;;;0.20;0.10;;;17.50;99.90;;;;;;20658835;28;20285;-68
2021/06/07 04:32:33;;;;;;;0.83;0.83;;;17.60;99.90;;;;;;20658985;28;20192;-67
2021/06/07 04:42:37;;;;;;;0.20;0.20;;;17.80;99.90;;;;;;20639729;28;20243;-67
2021/06/07 05:03:10;;;;;;;0.73;0.50;;;18.20;99.90;;;;;;21393204;27;20529;-67
2021/06/07 05:13:13;;;;;;;0.33;0.30;;;18.60;99.90;;;;;;21305473;27;20193;-67
2021/06/07 05:23:18;;;;;;;0.90;0.90;;;18.60;99.90;;;;;;21303498;27;20190;-67
2021/06/07 05:33:21;;;;;;;0.60;0.43;;;18.60;99.90;;;;;;21302970;27;20285;-68
2021/06/07 05:43:26;;;;;;;0.73;0.73;;;18.80;99.90;;;;;;21283231;27;20549;-67
2021/06/07 05:53:29;;;;;;;0.57;0.57;;;19.00;99.90;;;;;;21298802;27;20296;-66
2021/06/07 06:03:34;;;;;;;0.90;0.30;;;19.20;99.90;;;;;;21272130;27;20227;-66
2021/06/07 06:13:37;;;;;;;1.13;1.03;;;19.50;99.90;;;;;;21193484;27;20703;-68
2021/06/07 06:23:42;;;;;;;0.70;0.70;;;19.70;99.90;;;;;;21222084;27;20187;-66
2021/06/07 06:33:45;;;;;;;0.40;0.40;;;20.00;99.90;;;;;;21240942;27;20258;-66
2021/06/07 06:43:49;;;;;;;0.50;0.50;;;20.30;99.90;;;;;;21236497;27;20271;-66
2021/06/07 06:53:52;;;;;;;0.53;0.40;;;20.30;99.90;;;;;;21237578;27;20578;-66
2021/06/07 07:03:57;;;;;;;3.87;1.07;;;20.50;99.90;;;;;;21204127;27;20295;-68
2021/06/07 07:14:01;;;;;;;1.10;1.03;;;20.90;99.90;;;;;;21151647;28;20564;-68
2021/06/07 07:24:08;;;;;;;0.87;0.80;;;21.20;99.90;;;;;;21174510;27;20203;-66
2021/06/07 07:34:11;;;;;;;0.57;0.40;;;21.50;99.90;;;;;;21176060;27;20215;-63
2021/06/07 07:44:16;;;;;;;3.13;0.70;;;21.70;99.90;;;;;;21186115;27;20202;-66
2021/06/07 07:54:19;;;;;;;1.80;1.03;;;21.70;99.90;;;;;;21197078;27;20692;-66
2021/06/07 08:04:24;;;;;;;6.03;1.53;;;21.60;99.90;;;;;;21148297;28;20278;-66
2021/06/07 08:14:29;;;;;;;1.13;1.03;;;21.60;99.90;;;;;;21148100;28;20310;-65
2021/06/07 08:24:33;;;;;;;1.10;0.90;;;21.50;99.90;;;;;;21195813;27;20191;-65
2021/06/07 08:34:37;;;;;;;2.53;1.70;;;21.60;99.90;;;;;;21230484;27;20633;-66
2021/06/07 08:44:42;;;;;;;1.42;1.33;;;21.90;99.90;;;;;;21199043;27;20187;-68
2021/06/07 08:54:45;;;;;;;1.63;1.53;;;22.20;99.90;;;;;;21183928;27;20219;-64
2021/06/07 09:04:51;;;;;;;2.83;0.97;;;22.40;99.90;;;;;;21183408;27;20214;-64
2021/06/07 09:14:54;;;;;;;0.23;0.23;;;22.40;99.90;;;;;;21183614;27;20223;-64
2021/06/07 09:25:09;;;;;;;0.63;0.57;;;22.40;99.90;;;;;;21170146;27;20670;-67
2021/06/07 09:35:14;;;;;;;0.30;0.20;;;22.60;99.90;;;;;;21141584;28;20254;-68
2021/06/07 09:45:37;;;;;;;0.67;0.63;;;22.50;99.90;;;;;;21151858;27;20715;-67
2021/06/07 09:55:41;;;;;;;0.60;0.50;;;22.80;99.90;;;;;;21157592;28;20223;-67
2021/06/07 10:05:45;;;;;;;0.20;0.17;;;23.10;99.90;;;;;;21157983;28;20248;-65
2021/06/07 10:15:50;;;;;;;0.45;0.20;;;23.50;99.90;;;;;;21144556;28;20224;-64
2021/06/07 10:25:58;;;;;;;0.90;0.30;;;23.60;99.90;;;;;;21177261;27;20195;-64
2021/06/07 10:36:34;;;;;;;6.28;1.17;;;24.00;99.90;;;;;;21177417;27;20211;-64
2021/06/07 10:46:41;;;;;;;0.60;0.40;;;24.30;99.90;;;;;;21160711;27;20195;-65
2021/06/07 10:56:45;;;;;;;0.40;0.40;;;24.50;99.90;;;;;;21194076;27;20258;-64
2021/06/07 11:06:53;;;;;;;0.52;0.20;;;25.00;99.90;;;;;;21190242;27;20294;-66
2021/06/07 11:16:56;;;;;;;0.95;0.63;;;25.20;99.90;;;;;;21189064;27;20230;-66
2021/06/07 11:27:04;;;;;;;1.73;1.13;;;25.60;99.90;;;;;;21217878;27;20607;-66
2021/06/07 11:37:09;;;;;;;1.23;1.13;;;26.60;99.90;;;;;;21224060;27;20294;-67
2021/06/07 11:47:15;;;;;;;0.80;0.60;;;27.50;99.90;;;;;;21202293;27;20311;-66
2021/06/07 11:57:21;;;;;;;0.95;0.47;;;27.50;99.90;;;;;;21198260;27;20308;-65
2021/06/07 12:07:26;;;;;;;0.65;0.65;;;28.40;99.90;;;;;;21232384;27;20199;-66
2021/06/07 12:17:29;;;;;;;3.05;0.60;;;28.80;99.90;;;;;;21230987;27;20448;-66
2021/06/07 12:37:57;;;;;;;0.50;0.47;;;29.10;99.90;;;;;;21184354;27;20265;-64
2021/06/07 12:48:12;;;;;;;8.50;0.68;;;29.10;99.90;;;;;;21176909;27;20194;-65
2021/06/07 12:58:18;;;;;;;10.60;0.88;;;29.20;99.90;;;;;;21189760;27;20226;-65
2021/06/07 13:08:23;;;;;;;0.93;0.80;;;29.50;99.90;;;;;;21178363;27;20414;-63
2021/06/07 13:18:26;;;;;;;1.02;0.57;;;30.50;99.90;;;;;;21188732;27;20224;-65
2021/06/07 13:28:36;;;;;;;1.20;0.90;;;30.90;99.90;;;;;;21202672;27;20206;-64
2021/06/07 13:38:41;;;;;;;1.33;0.70;;;30.80;99.90;;;;;;21180394;27;20214;-65
2021/06/07 13:48:45;;;;;;;1.15;0.70;;;30.90;99.90;;;;;;21198855;27;20184;-64
2021/06/07 13:58:51;;;;;;;0.88;0.75;;;30.30;99.90;;;;;;21155374;28;20715;-63
2021/06/07 14:08:57;;;;;;;0.43;0.43;;;30.50;99.90;;;;;;21155299;28;20553;-63
2021/06/07 14:19:01;;;;;;;0.88;0.70;;;30.60;99.90;;;;;;21157706;27;20259;-64
2021/06/07 14:29:06;;;;;;;3.42;0.77;;;30.80;99.90;;;;;;21194786;27;20191;-64
2021/06/07 14:39:09;;;;;;;1.08;0.90;;;31.30;99.90;;;;;;21151637;28;20544;-65
2021/06/07 14:49:14;;;;;;;1.27;0.75;;;31.40;99.90;;;;;;21141454;28;20191;-64
2021/06/07 14:59:17;;;;;;;1.23;1.10;;;31.40;99.90;;;;;;21179632;27;20250;-63
2021/06/07 15:09:22;;;;;;;1.20;0.88;;;31.60;99.90;;;;;;21192405;27;20190;-62
2021/06/07 15:19:25;;;;;;;8.10;3.08;;;31.60;99.90;;;;;;21194306;27;20229;-63
2021/06/07 15:29:29;;;;;;;2.90;1.85;;;31.10;99.90;;;;;;21190983;27;20193;-63
2021/06/07 15:39:32;;;;;;;2.40;0.90;;;30.80;99.90;;;;;;21187795;27;20215;-63
2021/06/07 15:49:37;;;;;;;3.30;1.92;;;30.90;99.90;;;;;;21187176;27;20190;-64
2021/06/07 15:59:40;;;;;;;0.75;0.57;;;31.50;99.90;;;;;;21188013;27;20710;-64
2021/06/07 16:09:45;;;;;;;0.50;0.50;;;31.10;99.90;;;;;;21186727;27;20307;-64
2021/06/07 16:19:52;;;;;;;4.80;1.55;;;30.80;99.90;;;;;;21186388;27;20570;-64
2021/06/07 16:29:57;;;;;;;0.95;0.88;;;30.50;99.90;;;;;;21173620;27;20374;-64
2021/06/07 16:40:00;;;;;;;0.63;0.63;;;30.40;99.90;;;;;;21144078;28;20251;-65
2021/06/07 16:50:08;;;;;;;1.80;0.68;;;30.30;99.90;;;;;;21167304;27;20229;-67
2021/06/07 17:00:12;;;;;;;1.17;1.08;;;29.30;99.90;;;;;;21184190;27;20344;-67
2021/06/07 17:10:19;;;;;;;1.02;0.80;;;30.20;99.90;;;;;;21181346;27;20600;-67
2021/06/07 17:20:23;;;;;;;1.23;0.75;;;29.70;99.90;;;;;;21186125;27;20229;-65
2021/06/07 17:30:27;;;;;;;0.70;0.70;;;29.50;99.90;;;;;;21178777;27;20544;-67
2021/06/07 17:40:31;;;;;;;0.57;0.45;;;29.30;99.90;;;;;;21146931;27;20948;-66
2021/06/07 17:50:35;;;;;;;2.08;0.63;;;27.40;99.90;;;;;;21160900;27;20278;-67
2021/06/07 18:00:39;;;;;;;0.60;0.60;;;25.30;99.90;;;;;;21138848;28;20318;-65
2021/06/07 18:10:43;;;;;;;0.30;0.20;;;27.10;99.90;;;;;;21156297;28;20550;-65
2021/06/07 18:20:46;;;;;;;0.25;0.22;;;27.00;99.90;;;;;;21170677;27;20732;-65
2021/06/07 18:30:51;;;;;;;0.45;0.22;;;26.00;99.90;;;;;;21183012;27;20248;-65
2021/06/07 18:40:54;;;;;;;0.60;0.60;;;26.30;99.90;;;;;;21152974;28;20234;-65
2021/06/07 18:50:58;;;;;;;0.20;0.20;;;25.30;99.90;;;;;;21150019;27;20219;-66
2021/06/07 19:01:01;;;;;;;0.43;0.43;;;24.20;99.90;;;;;;21150961;28;20258;-66
2021/06/07 19:11:06;;;;;;;1.83;1.17;;;23.30;99.90;;;;;;21151625;28;20211;-67
2021/06/07 19:21:10;;;;;;;0.70;0.70;;;23.00;99.90;;;;;;21176796;27;20240;-67
2021/06/07 19:31:15;;;;;;;0.57;0.57;;;22.90;99.90;;;;;;21236877;27;20216;-66
2021/06/07 19:41:18;;;;;;;1.00;0.70;;;22.80;99.90;;;;;;21208726;27;20227;-66
2021/06/07 19:51:24;;;;;;;2.17;2.07;;;22.40;99.90;;;;;;21189526;27;20652;-68
2021/06/07 20:01:28;;;;;;;0.23;0.13;;;22.50;99.90;;;;;;21185822;27;20231;-68
2021/06/07 20:11:34;;;;;;;0.97;0.87;;;22.00;99.90;;;;;;21216765;27;20213;-66
2021/06/07 20:21:37;;;;;;;0.93;0.30;;;22.10;99.90;;;;;;21172963;27;20211;-68
2021/06/07 20:31:49;;;;;;;1.03;0.50;;;21.90;99.90;;;;;;21171080;27;20279;-68
2021/06/07 20:41:55;;;;;;;1.23;0.53;;;21.90;99.90;;;;;;21189135;27;20214;-68
2021/06/07 20:52:00;;;;;;;4.33;0.80;;;21.10;99.90;;;;;;21189359;27;20187;-69
2021/06/07 21:02:04;;;;;;;0.87;0.83;;;20.80;99.90;;;;;;21187813;27;20221;-67
2021/06/07 21:12:10;;;;;;;0.60;0.50;;;20.70;99.90;;;;;;21188069;28;20187;-68
2021/06/07 21:22:24;;;;;;;4.17;1.77;;;20.50;99.90;;;;;;21190019;27;20222;-67
2021/06/07 21:32:28;;;;;;;6.80;0.83;;;20.30;99.90;;;;;;21175864;27;20187;-66
2021/06/07 21:42:32;;;;;;;0.60;0.43;;;20.30;99.90;;;;;;21173375;27;20729;-68
2021/06/07 21:52:36;;;;;;;0.30;0.30;;;20.00;99.90;;;;;;21175217;27;20270;-67
2021/06/07 22:02:39;;;;;;;0.73;0.73;;;19.90;99.90;;;;;;21153874;27;20326;-66
2021/06/07 22:12:44;;;;;;;6.80;0.97;;;19.70;99.90;;;;;;21179158;27;20278;-67
2021/06/07 22:22:47;;;;;;;4.03;1.87;;;19.50;99.90;;;;;;21201518;27;20317;-68
2021/06/07 22:32:53;;;;;;;0.83;0.53;;;19.50;99.90;;;;;;21196571;27;20207;-67
2021/06/07 22:42:56;;;;;;;1.17;1.07;;;19.30;99.90;;;;;;21199226;27;20302;-65
2021/06/07 22:53:00;;;;;;;0.40;0.30;;;19.10;99.90;;;;;;21197592;27;20191;-65
2021/06/07 23:03:04;;;;;;;1.20;0.77;;;19.00;99.90;;;;;;21181737;27;20238;-64
2021/06/07 23:13:08;;;;;;;0.40;0.27;;;19.10;99.90;;;;;;21156637;28;20196;-65
2021/06/07 23:23:12;;;;;;;0.40;0.40;;;19.10;99.90;;;;;;21191772;27;20750;-64
2021/06/07 23:33:16;;;;;;;0.53;0.53;;;19.30;99.90;;;;;;21238669;27;20595;-64
2021/06/07 23:43:20;;;;;;;1.23;0.70;;;19.20;99.90;;;;;;21219718;27;20309;-65
2021/06/07 23:53:24;;;;;;;0.20;0.20;;;19.40;99.90;;;;;;21218689;27;20291;-64
